Time;durP1;ratioP1;P1;durP2;ratioP2;P2;SDS_P1;SDS_P2;PMS_P1;PMS_P2;Temp;Humidity;BMP_temperature;BMP_pressure;BME280_temperature;BME280_humidity;BME280_pressure;Samples;Min_cycle;Max_cycle;Signal;HPM_P1;HPM_P2
2022/06/28 00:00:09;0.00;0.00;0.62;0.00;0.00;0.62;7.83;6.80;;;25.80;40.90;;;;;;2247906;61;20496;-59
2022/06/28 00:02:53;0.00;0.00;0.62;0.00;0.00;0.62;5.60;5.07;;;25.80;40.80;;;;;;2247431;61;20368;-59
2022/06/28 00:05:38;0.00;0.00;0.62;0.00;0.00;0.62;8.13;6.37;;;25.80;40.70;;;;;;2243624;61;20400;-60
2022/06/28 00:08:23;0.00;0.00;0.62;0.00;0.00;0.62;6.40;5.67;;;25.80;40.70;;;;;;2247841;61;20383;-61
2022/06/28 00:11:09;0.00;0.00;0.62;0.00;0.00;0.62;5.60;5.00;;;25.80;40.50;;;;;;2247193;61;20782;-60
2022/06/28 00:13:53;0.00;0.00;0.62;0.00;0.00;0.62;6.80;6.20;;;25.90;40.50;;;;;;2246838;61;20494;-61
2022/06/28 00:16:38;0.00;0.00;0.62;0.00;0.00;0.62;5.73;5.23;;;25.80;40.40;;;;;;2247784;61;20411;-58
2022/06/28 00:19:23;0.00;0.00;0.62;0.00;0.00;0.62;5.83;5.23;;;25.80;40.40;;;;;;2246572;61;20412;-61
2022/06/28 00:22:08;0.00;0.00;0.62;0.00;0.00;0.62;5.50;5.00;;;25.80;40.40;;;;;;2247777;61;20364;-59
2022/06/28 00:24:53;0.00;0.00;0.62;0.00;0.00;0.62;6.23;5.63;;;25.80;40.40;;;;;;2247079;61;20485;-60
2022/06/28 00:27:39;0.00;0.00;0.62;0.00;0.00;0.62;7.27;5.33;;;25.80;40.40;;;;;;2246850;61;20419;-59
2022/06/28 00:30:25;0.00;0.00;0.62;0.00;0.00;0.62;5.67;5.17;;;25.80;40.40;;;;;;2244584;61;20442;-60
2022/06/28 00:33:10;0.00;0.00;0.62;0.00;0.00;0.62;5.53;5.03;;;25.80;40.40;;;;;;2243979;61;20367;-60
2022/06/28 00:35:55;0.00;0.00;0.62;0.00;0.00;0.62;8.40;5.97;;;25.80;40.40;;;;;;2247136;61;20938;-59
2022/06/28 00:38:40;0.00;0.00;0.62;0.00;0.00;0.62;5.50;5.00;;;25.80;40.40;;;;;;2247577;61;20475;-60
2022/06/28 00:41:26;0.00;0.00;0.62;0.00;0.00;0.62;6.50;5.80;;;25.80;40.40;;;;;;2246630;61;20367;-60
2022/06/28 00:44:13;0.00;0.00;0.62;0.00;0.00;0.62;5.60;4.70;;;25.80;40.40;;;;;;2247485;61;20439;-60
2022/06/28 00:46:58;0.00;0.00;0.62;0.00;0.00;0.62;5.93;5.13;;;25.80;40.40;;;;;;2244289;61;20405;-60
2022/06/28 00:49:43;0.00;0.00;0.62;0.00;0.00;0.62;6.43;5.60;;;25.70;40.30;;;;;;2246795;61;20435;-60
2022/06/28 00:52:28;0.00;0.00;0.62;0.00;0.00;0.62;7.70;6.00;;;25.80;40.40;;;;;;2247724;61;20418;-60
2022/06/28 00:55:13;0.00;0.00;0.62;0.00;0.00;0.62;7.33;5.70;;;25.70;40.20;;;;;;2246577;61;20364;-59
2022/06/28 00:57:58;0.00;0.00;0.62;0.00;0.00;0.62;6.70;6.03;;;25.70;40.10;;;;;;2243737;61;20482;-61
2022/06/28 01:00:46;0.00;0.00;0.62;0.00;0.00;0.62;6.70;6.00;;;25.70;39.90;;;;;;2247689;61;20372;-61
2022/06/28 01:03:31;0.00;0.00;0.62;0.00;0.00;0.62;6.23;5.70;;;25.70;39.80;;;;;;2243357;61;20438;-60
2022/06/28 01:06:16;0.00;0.00;0.62;0.00;0.00;0.62;7.37;5.90;;;25.70;39.60;;;;;;2244505;61;20865;-60
2022/06/28 01:09:01;0.00;0.00;0.62;0.00;0.00;0.62;7.47;6.57;;;25.70;39.50;;;;;;2244447;61;20499;-60
2022/06/28 01:11:49;0.00;0.00;0.62;0.00;0.00;0.62;9.00;6.43;;;25.70;39.40;;;;;;2243617;61;20415;-60
2022/06/28 01:14:34;0.00;0.00;0.62;0.00;0.00;0.62;7.43;6.40;;;25.70;39.20;;;;;;2244461;61;20535;-61
2022/06/28 01:17:29;0.00;0.00;0.62;0.00;0.00;0.62;6.33;5.73;;;25.70;39.10;;;;;;2244121;61;20371;-60
2022/06/28 01:20:29;0.00;0.00;0.62;0.00;0.00;0.62;5.80;5.30;;;25.70;39.00;;;;;;2244091;61;20879;-57
2022/06/28 01:23:33;0.00;0.00;0.62;0.00;0.00;0.62;5.97;5.47;;;25.60;38.90;;;;;;2245164;61;20363;-59
2022/06/28 01:26:29;0.00;0.00;0.62;0.00;0.00;0.62;6.73;6.03;;;25.60;38.80;;;;;;2244473;61;20825;-61
2022/06/28 01:29:14;0.00;0.00;0.62;0.00;0.00;0.62;6.17;5.60;;;25.60;38.80;;;;;;2248094;61;20443;-59
2022/06/28 01:32:19;0.00;0.00;0.62;0.00;0.00;0.62;7.63;6.00;;;25.60;38.80;;;;;;2247538;61;20442;-58
2022/06/28 01:35:06;0.00;0.00;0.62;0.00;0.00;0.62;7.87;5.80;;;25.60;38.70;;;;;;2244400;61;20430;-60
2022/06/28 01:37:51;0.00;0.00;0.62;0.00;0.00;0.62;6.07;5.40;;;25.60;38.70;;;;;;2245252;61;20505;-59
2022/06/28 01:40:44;0.00;0.00;0.62;0.00;0.00;0.62;5.90;5.40;;;25.50;38.60;;;;;;2247093;61;20378;-59
2022/06/28 01:43:32;0.00;0.00;0.62;0.00;0.00;0.62;5.90;5.30;;;25.50;38.60;;;;;;2244856;61;20375;-59
2022/06/28 01:46:17;0.00;0.00;0.62;0.00;0.00;0.62;6.40;4.77;;;25.50;38.60;;;;;;2247935;61;20395;-60
2022/06/28 01:49:11;0.00;0.00;0.62;0.00;0.00;0.62;6.60;5.27;;;25.50;38.50;;;;;;2244199;61;20407;-60
2022/06/28 01:51:56;0.00;0.00;0.62;0.00;0.00;0.62;5.93;5.13;;;25.40;38.40;;;;;;2248278;61;20360;-60
2022/06/28 01:54:41;0.00;0.00;0.62;0.00;0.00;0.62;6.33;5.47;;;25.40;38.40;;;;;;2244352;61;20515;-60
2022/06/28 01:57:29;0.00;0.00;0.62;0.00;0.00;0.62;6.00;5.10;;;25.40;38.40;;;;;;2247057;61;20414;-60
2022/06/28 02:00:18;0.00;0.00;0.62;0.00;0.00;0.62;7.27;5.40;;;25.40;38.40;;;;;;2245091;61;20383;-59
2022/06/28 02:03:08;0.00;0.00;0.62;0.00;0.00;0.62;5.60;5.00;;;25.30;38.30;;;;;;2243700;61;20880;-58
2022/06/28 02:05:56;0.00;0.00;0.62;0.00;0.00;0.62;5.27;4.53;;;25.30;38.40;;;;;;2248180;61;20399;-59
2022/06/28 02:08:41;0.00;0.00;0.62;0.00;0.00;0.62;5.30;4.20;;;25.20;38.40;;;;;;2244441;61;20467;-60
2022/06/28 02:11:31;0.00;0.00;0.62;0.00;0.00;0.62;4.70;3.83;;;25.10;38.80;;;;;;2244177;61;20372;-58
2022/06/28 02:14:18;0.00;0.00;0.62;0.00;0.00;0.62;5.10;4.60;;;25.10;38.60;;;;;;2244907;61;20792;-57
2022/06/28 02:17:04;0.00;0.00;0.62;0.00;0.00;0.62;6.27;4.70;;;25.10;38.80;;;;;;2244561;61;20411;-58
2022/06/28 02:19:50;0.00;0.00;0.62;0.00;0.00;0.62;5.57;4.97;;;25.00;38.70;;;;;;2244381;61;20504;-59
2022/06/28 02:22:35;0.00;0.00;0.62;0.00;0.00;0.62;6.70;4.63;;;25.00;39.00;;;;;;2244990;61;20401;-59
2022/06/28 02:25:20;0.00;0.00;0.62;0.00;0.00;0.62;5.07;4.23;;;25.00;39.00;;;;;;2243445;61;20416;-59
2022/06/28 02:28:05;0.00;0.00;0.62;0.00;0.00;0.62;8.57;4.47;;;24.90;38.90;;;;;;2248163;61;20476;-59
2022/06/28 02:30:51;0.00;0.00;0.62;0.00;0.00;0.62;6.70;5.53;;;24.90;39.00;;;;;;2244406;61;20479;-58
2022/06/28 02:33:36;0.00;0.00;0.62;0.00;0.00;0.62;5.13;4.10;;;24.90;39.00;;;;;;2243664;61;20407;-59
2022/06/28 02:42:29;0.00;0.00;0.62;0.00;0.00;0.62;4.70;4.13;;;24.80;38.90;;;;;;2248070;61;20363;-58
2022/06/28 02:45:14;0.00;0.00;0.62;0.00;0.00;0.62;6.90;4.87;;;24.70;38.90;;;;;;2247542;61;20487;-60
2022/06/28 02:48:01;0.00;0.00;0.62;0.00;0.00;0.62;5.93;4.83;;;24.70;38.80;;;;;;2247092;61;20387;-58
2022/06/28 02:50:46;0.00;0.00;0.62;0.00;0.00;0.62;5.27;4.77;;;24.70;38.80;;;;;;2248022;61;20411;-60
2022/06/28 02:53:30;0.00;0.00;0.62;0.00;0.00;0.62;5.90;4.00;;;24.60;38.80;;;;;;2244339;61;20413;-58
2022/06/28 02:56:20;0.00;0.00;0.62;0.00;0.00;0.62;5.50;4.80;;;24.60;38.90;;;;;;2244055;61;20472;-59
2022/06/28 02:59:05;0.00;0.00;0.62;0.00;0.00;0.62;5.70;4.10;;;24.60;38.90;;;;;;2247952;61;20446;-60
2022/06/28 03:01:49;0.00;0.00;0.62;0.00;0.00;0.62;7.67;5.47;;;24.60;39.60;;;;;;2244233;61;20451;-59
2022/06/28 03:04:36;0.00;0.00;0.62;0.00;0.00;0.62;6.53;4.50;;;24.50;38.80;;;;;;2244467;61;20403;-59
2022/06/28 03:07:21;0.00;0.00;0.62;0.00;0.00;0.62;4.97;4.10;;;24.50;38.80;;;;;;2244727;61;20368;-60
2022/06/28 03:10:08;0.00;0.00;0.62;0.00;0.00;0.62;6.93;6.00;;;24.50;38.90;;;;;;2246681;61;20387;-61
2022/06/28 03:12:53;0.00;0.00;0.62;0.00;0.00;0.62;7.30;5.63;;;24.50;38.80;;;;;;2244910;61;20371;-60
2022/06/28 03:15:38;0.00;0.00;0.62;0.00;0.00;0.62;5.63;5.03;;;24.50;38.80;;;;;;2244580;61;20407;-60
2022/06/28 03:18:23;0.00;0.00;0.62;0.00;0.00;0.62;10.03;5.60;;;24.40;38.70;;;;;;2247177;61;20408;-60
2022/06/28 03:21:10;0.00;0.00;0.62;0.00;0.00;0.62;5.70;5.10;;;24.40;38.80;;;;;;2244879;61;20359;-60
2022/06/28 03:23:55;0.00;0.00;0.62;0.00;0.00;0.62;5.70;4.40;;;24.40;38.90;;;;;;2247617;61;20423;-59
2022/06/28 03:26:42;0.00;0.00;0.62;0.00;0.00;0.62;5.57;4.80;;;24.30;38.90;;;;;;2247396;61;20359;-60
2022/06/28 03:29:27;0.00;0.00;0.62;0.00;0.00;0.62;6.83;5.20;;;24.30;39.00;;;;;;2244710;61;20815;-60
2022/06/28 03:32:12;0.00;0.00;0.62;0.00;0.00;0.62;5.70;5.13;;;24.30;39.10;;;;;;2705341;45;20976;-61
2022/06/28 03:34:57;0.00;0.00;0.62;0.00;0.00;0.62;6.63;5.13;;;24.30;39.10;;;;;;2247606;61;20772;-60
2022/06/28 03:37:44;0.00;0.00;0.62;0.00;0.00;0.62;6.30;5.70;;;24.30;39.10;;;;;;2247282;61;20371;-61
2022/06/28 03:40:29;0.00;0.00;0.62;0.00;0.00;0.62;6.50;5.47;;;24.30;39.10;;;;;;2246844;61;20354;-62
2022/06/28 03:43:14;0.00;0.00;0.62;0.00;0.00;0.62;6.10;5.50;;;24.20;39.10;;;;;;2247328;61;20391;-61
2022/06/28 03:46:00;0.00;0.00;0.62;0.00;0.00;0.62;7.80;7.00;;;24.20;39.10;;;;;;2246997;61;20403;-60
2022/06/28 03:48:55;0.00;0.00;0.62;0.00;0.00;0.62;8.50;7.07;;;24.20;38.90;;;;;;2244584;61;20384;-61
2022/06/28 03:51:58;0.00;0.00;0.62;0.00;0.00;0.62;6.30;5.70;;;24.20;38.90;;;;;;2247869;61;20860;-61
2022/06/28 03:54:46;0.00;0.00;0.62;0.00;0.00;0.62;6.50;5.90;;;24.20;39.00;;;;;;2247169;61;20363;-61
2022/06/28 03:57:45;0.00;0.00;0.62;0.00;0.00;0.62;8.33;6.73;;;24.20;38.90;;;;;;2247473;61;20402;-60
2022/06/28 04:00:31;0.00;0.00;0.62;0.00;0.00;0.62;8.13;7.40;;;24.20;39.00;;;;;;2246927;61;20367;-61
2022/06/28 04:03:16;0.00;0.00;0.62;0.00;0.00;0.62;7.30;6.40;;;24.20;39.00;;;;;;2247015;61;20402;-62
2022/06/28 04:06:03;0.00;0.00;0.62;0.00;0.00;0.62;8.00;6.17;;;24.10;39.10;;;;;;2247549;61;20404;-60
2022/06/28 04:08:48;0.00;0.00;0.62;0.00;0.00;0.62;7.87;7.07;;;24.10;39.10;;;;;;2246671;61;20379;-62
2022/06/28 04:11:35;0.00;0.00;0.62;0.00;0.00;0.62;8.63;7.67;;;24.10;39.10;;;;;;2244351;61;20864;-62
2022/06/28 04:14:21;0.00;0.00;0.62;0.00;0.00;0.62;11.23;7.60;;;24.10;39.10;;;;;;2246933;61;20976;-62
2022/06/28 04:17:06;0.00;0.00;0.62;0.00;0.00;0.62;7.60;6.80;;;24.00;39.00;;;;;;2246936;61;20367;-62
2022/06/28 04:20:18;0.00;0.00;0.62;0.00;0.00;0.62;9.80;7.50;;;24.00;39.00;;;;;;2243223;61;20431;-61
2022/06/28 04:23:16;0.00;0.00;0.62;0.00;0.00;0.62;8.17;7.40;;;24.00;39.00;;;;;;2246808;61;20372;-60
2022/06/28 04:26:01;0.00;0.00;0.62;0.00;0.00;0.62;6.80;5.93;;;24.00;39.00;;;;;;2247270;61;20904;-61
2022/06/28 04:28:53;0.00;0.00;0.62;0.00;0.00;0.62;7.40;6.70;;;24.00;39.00;;;;;;2244059;61;20951;-61
2022/06/28 04:31:41;0.00;0.00;0.62;0.00;0.00;0.62;7.30;6.60;;;24.00;39.00;;;;;;2246644;61;20384;-62
2022/06/28 04:34:27;0.00;0.00;0.62;0.00;0.00;0.62;8.13;6.63;;;24.00;39.00;;;;;;2246722;61;20402;-61
2022/06/28 04:37:15;0.00;0.00;0.62;0.00;0.00;0.62;7.17;6.13;;;24.00;39.10;;;;;;2246709;61;20959;-63
2022/06/28 04:40:03;0.00;0.00;0.62;0.00;0.00;0.62;9.17;6.57;;;24.00;39.10;;;;;;2246660;61;20365;-63
2022/06/28 04:42:57;0.00;0.00;0.62;0.00;0.00;0.62;7.23;6.53;;;24.00;39.00;;;;;;2247123;61;20527;-62
2022/06/28 04:45:43;0.00;0.00;0.62;0.00;0.00;0.62;9.47;6.60;;;23.90;38.90;;;;;;2246272;61;20450;-62
2022/06/28 04:48:30;0.00;0.00;0.62;0.00;0.00;0.62;8.60;7.03;;;23.90;38.90;;;;;;2244310;61;20408;-61
2022/06/28 04:51:16;0.00;0.00;0.62;0.00;0.00;0.62;5.97;5.47;;;23.90;38.90;;;;;;2244027;61;20418;-61
2022/06/28 04:54:02;0.00;0.00;0.62;0.00;0.00;0.62;7.20;6.23;;;23.90;39.00;;;;;;2243863;61;20402;-62
2022/06/28 04:56:52;0.00;0.00;0.62;0.00;0.00;0.62;5.53;5.03;;;23.90;39.10;;;;;;2244489;61;20372;-60
2022/06/28 04:59:36;0.00;0.00;0.62;0.00;0.00;0.62;6.47;5.87;;;23.90;39.10;;;;;;2244606;61;20853;-60
2022/06/28 05:02:29;0.00;0.00;0.62;0.00;0.00;0.62;5.70;5.17;;;23.90;39.10;;;;;;2244557;61;20364;-62
2022/06/28 05:05:15;0.00;0.00;0.62;0.00;0.00;0.62;7.13;6.20;;;23.90;39.20;;;;;;2244787;61;20435;-60
2022/06/28 05:08:01;0.00;0.00;0.62;0.00;0.00;0.62;8.20;6.50;;;23.90;39.80;;;;;;2246942;61;20849;-62
2022/06/28 05:10:52;0.00;0.00;0.62;0.00;0.00;0.62;8.77;7.60;;;23.90;39.10;;;;;;2247765;61;20371;-61
2022/06/28 05:13:49;0.00;0.00;0.62;0.00;0.00;0.62;6.90;5.80;;;23.90;38.90;;;;;;2247018;61;20383;-62
2022/06/28 05:16:35;0.00;0.00;0.62;0.00;0.00;0.62;6.80;6.10;;;24.00;39.00;;;;;;2247291;61;20363;-62
2022/06/28 05:19:22;0.00;0.00;0.62;0.00;0.00;0.62;10.93;6.37;;;23.90;38.90;;;;;;2244878;61;20438;-62
2022/06/28 05:22:10;0.00;0.00;0.62;0.00;0.00;0.62;7.37;4.10;;;23.90;38.90;;;;;;2247819;61;20471;-62
2022/06/28 05:25:12;0.00;0.00;0.62;0.00;0.00;0.62;5.83;5.20;;;24.00;39.00;;;;;;2247358;61;20462;-62
2022/06/28 05:27:57;0.00;0.00;0.62;0.00;0.00;0.62;6.40;5.70;;;24.00;39.00;;;;;;2247992;61;20798;-63
2022/06/28 05:30:42;0.00;0.00;0.62;0.00;0.00;0.62;7.80;5.20;;;24.00;39.00;;;;;;2247528;61;20764;-61
2022/06/28 05:33:27;0.00;0.00;0.62;0.00;0.00;0.62;8.03;5.93;;;24.00;39.00;;;;;;2244771;61;20391;-61
2022/06/28 05:36:13;0.00;0.00;0.62;0.00;0.00;0.62;8.33;6.00;;;24.00;39.00;;;;;;2247282;61;20363;-60
2022/06/28 05:38:58;0.00;0.00;0.62;0.00;0.00;0.62;7.20;5.27;;;24.10;39.10;;;;;;2247529;61;20394;-61
2022/06/28 05:41:43;0.00;0.00;0.62;0.00;0.00;0.62;7.67;4.90;;;24.10;39.10;;;;;;2248103;61;20383;-60
2022/06/28 05:44:28;0.00;0.00;0.62;0.00;0.00;0.62;6.53;5.93;;;24.10;38.90;;;;;;2247244;61;20367;-62
2022/06/28 05:47:14;0.00;0.00;0.62;0.00;0.00;0.62;7.13;5.53;;;24.10;38.70;;;;;;2245083;61;20363;-63
2022/06/28 05:49:58;0.00;0.00;0.62;0.00;0.00;0.62;7.43;5.40;;;24.10;38.50;;;;;;2248261;61;20769;-62
2022/06/28 05:52:45;0.00;0.00;0.62;0.00;0.00;0.62;7.37;5.83;;;24.10;38.50;;;;;;2247526;61;20359;-63
2022/06/28 05:55:31;0.00;0.00;0.62;0.00;0.00;0.62;7.83;5.67;;;24.10;38.30;;;;;;2244723;61;20368;-61
2022/06/28 05:58:15;0.00;0.00;0.62;0.00;0.00;0.62;6.47;5.17;;;24.10;38.20;;;;;;2247066;61;20915;-59
2022/06/28 06:01:00;0.00;0.00;0.62;0.00;0.00;0.62;8.53;6.00;;;24.20;38.20;;;;;;2247634;61;20376;-61
2022/06/28 06:03:45;0.00;0.00;0.62;0.00;0.00;0.62;6.30;5.43;;;24.20;38.20;;;;;;2247282;61;20368;-62
2022/06/28 06:06:30;0.00;0.00;0.62;0.00;0.00;0.62;6.97;5.60;;;24.20;38.10;;;;;;2247095;61;20391;-61
2022/06/28 06:09:18;0.00;0.00;0.62;0.00;0.00;0.62;7.50;5.43;;;24.20;38.10;;;;;;2244398;61;20399;-61
2022/06/28 06:12:06;0.00;0.00;0.62;0.00;0.00;0.62;8.30;5.13;;;24.20;38.00;;;;;;2244861;61;20974;-63
2022/06/28 06:14:51;0.00;0.00;0.62;0.00;0.00;0.62;8.33;5.00;;;24.20;37.90;;;;;;2243868;61;20485;-63
2022/06/28 06:17:36;0.00;0.00;0.62;0.00;0.00;0.62;4.27;3.60;;;24.20;37.90;;;;;;2247455;61;20415;-63
2022/06/28 06:20:21;0.00;0.00;0.62;0.00;0.00;0.62;5.03;4.20;;;24.20;37.90;;;;;;2247627;61;20423;-63
2022/06/28 06:23:07;0.00;0.00;0.62;0.00;0.00;0.62;5.20;4.43;;;24.20;38.00;;;;;;2246842;61;20372;-63
2022/06/28 06:26:12;0.00;0.00;0.62;0.00;0.00;0.62;3.40;2.77;;;24.30;38.70;;;;;;2247812;61;20435;-63
2022/06/28 06:28:57;0.00;0.00;0.62;0.00;0.00;0.62;4.40;3.40;;;24.30;38.10;;;;;;2247410;61;20391;-62
2022/06/28 06:31:43;0.00;0.00;0.62;0.00;0.00;0.62;6.13;3.87;;;24.30;37.90;;;;;;2247473;61;20834;-61
2022/06/28 06:34:46;0.00;0.00;0.62;0.00;0.00;0.62;4.33;3.83;;;24.30;37.80;;;;;;2247479;61;20832;-60
2022/06/28 06:37:32;0.00;0.00;0.62;0.00;0.00;0.62;4.37;3.03;;;24.30;37.80;;;;;;2247009;61;20363;-62
2022/06/28 06:40:19;0.00;0.00;0.62;0.00;0.00;0.62;4.90;3.20;;;24.30;37.80;;;;;;2244850;61;20834;-62
2022/06/28 06:43:06;0.00;0.00;0.62;0.00;0.00;0.62;5.23;2.50;;;24.40;37.80;;;;;;2247473;61;20368;-62
2022/06/28 06:45:54;0.00;0.00;0.62;0.00;0.00;0.62;4.10;3.20;;;24.40;37.80;;;;;;2244140;61;20392;-61
2022/06/28 06:48:39;0.00;0.00;0.62;0.00;0.00;0.62;5.73;2.70;;;24.40;37.70;;;;;;2244883;61;20836;-63
2022/06/28 06:51:24;0.00;0.00;0.62;0.00;0.00;0.62;4.93;3.47;;;24.50;37.70;;;;;;2246622;61;20512;-62
2022/06/28 06:54:09;0.00;0.00;0.62;0.00;0.00;0.62;3.03;2.23;;;24.50;37.60;;;;;;2247217;61;20368;-61
2022/06/28 06:56:54;0.00;0.00;0.62;0.00;0.00;0.62;5.93;3.57;;;24.50;37.60;;;;;;2247692;61;20399;-61
2022/06/28 06:59:40;0.00;0.00;0.62;0.00;0.00;0.62;4.87;2.90;;;24.60;37.40;;;;;;2247639;61;20556;-58
2022/06/28 07:02:25;0.00;0.00;0.62;0.00;0.00;0.62;2.40;2.20;;;24.60;37.30;;;;;;2245119;61;20423;-60
2022/06/28 07:05:14;0.00;0.00;0.62;0.00;0.00;0.62;5.60;2.57;;;24.60;37.30;;;;;;2244374;61;20992;-62
2022/06/28 07:07:59;0.00;0.00;0.62;0.00;0.00;0.62;3.73;2.33;;;24.70;37.30;;;;;;2244245;61;20380;-63
2022/06/28 07:10:51;0.00;0.00;0.62;0.00;0.00;0.62;3.40;2.10;;;24.60;37.10;;;;;;2247647;61;20388;-58
2022/06/28 07:13:37;0.00;0.00;0.62;0.00;0.00;0.62;10.07;2.50;;;24.70;37.00;;;;;;2246275;61;20430;-59
2022/06/28 07:16:24;0.00;0.00;0.62;0.00;0.00;0.62;6.30;2.10;;;24.70;36.90;;;;;;2247808;61;21049;-59
2022/06/28 07:19:09;0.00;0.00;0.62;0.00;0.00;0.62;3.03;2.47;;;24.70;36.90;;;;;;2246648;61;20395;-55
2022/06/28 07:21:54;0.00;0.00;0.62;0.00;0.00;0.62;2.50;1.77;;;24.80;36.70;;;;;;2246828;61;20360;-58
2022/06/28 07:24:40;0.00;0.00;0.62;0.00;0.00;0.62;4.43;2.10;;;24.90;36.80;;;;;;2247184;61;20452;-60
2022/06/28 07:27:27;0.00;0.00;0.62;0.00;0.00;0.62;2.50;2.00;;;24.90;36.50;;;;;;2246719;61;20821;-57
2022/06/28 07:30:12;0.00;0.00;0.62;0.00;0.00;0.62;4.40;2.17;;;24.90;36.50;;;;;;2247088;61;20364;-58
2022/06/28 07:32:59;0.00;0.00;0.62;0.00;0.00;0.62;2.90;1.70;;;24.90;36.30;;;;;;2244569;61;20796;-60
2022/06/28 07:35:45;0.00;0.00;0.62;0.00;0.00;0.62;5.33;1.93;;;25.00;36.30;;;;;;2243893;61;20364;-64
2022/06/28 07:38:31;0.00;0.00;0.62;0.00;0.00;0.62;3.53;1.90;;;25.00;36.10;;;;;;2247356;61;20419;-59
2022/06/28 07:41:35;0.00;0.00;0.62;0.00;0.00;0.62;4.53;1.93;;;25.00;35.60;;;;;;2247731;61;20361;-60
2022/06/28 07:44:39;0.00;0.00;0.62;0.00;0.00;0.62;4.83;1.80;;;25.00;35.50;;;;;;2246841;61;20375;-60
2022/06/28 07:47:23;0.00;0.00;0.62;0.00;0.00;0.62;2.93;1.70;;;25.10;35.50;;;;;;2247430;61;20431;-58
2022/06/28 07:53:13;0.00;0.00;0.62;0.00;0.00;0.62;2.80;2.30;;;25.10;35.20;;;;;;2247169;61;20414;-58
2022/06/28 07:56:18;0.00;0.00;0.62;0.00;0.00;0.62;4.43;2.00;;;25.10;35.10;;;;;;2508888;53;20394;-58
2022/06/28 07:59:03;0.00;0.00;0.62;0.00;0.00;0.62;3.80;1.97;;;25.20;34.90;;;;;;2246958;61;20395;-61
2022/06/28 08:01:51;0.00;0.00;0.62;0.00;0.00;0.62;3.87;2.23;;;25.20;34.80;;;;;;2247473;61;20371;-59
2022/06/28 08:04:49;0.00;0.00;0.62;0.00;0.00;0.62;4.07;1.80;;;25.20;34.70;;;;;;2246379;61;21053;-61
2022/06/28 08:07:35;0.00;0.00;0.62;0.00;0.00;0.62;3.90;1.60;;;25.20;34.30;;;;;;2246828;61;20371;-62
2022/06/28 08:10:20;0.00;0.00;0.62;0.00;0.00;0.62;4.13;2.03;;;25.30;34.30;;;;;;2249368;61;20390;-61
2022/06/28 08:13:07;0.00;0.00;0.62;0.00;0.00;0.62;5.80;2.30;;;25.30;34.10;;;;;;2248169;61;20366;-61
2022/06/28 08:15:52;0.00;0.00;0.62;0.00;0.00;0.62;2.63;1.87;;;25.30;34.10;;;;;;2251740;61;20366;-62
2022/06/28 08:18:38;0.00;0.00;0.62;0.00;0.00;0.62;2.67;1.83;;;25.30;34.00;;;;;;2247938;61;20390;-59
2022/06/28 08:21:23;0.00;0.00;0.62;0.00;0.00;0.62;2.93;1.80;;;25.30;33.80;;;;;;2248059;61;20366;-61
2022/06/28 08:24:09;0.00;0.00;0.62;0.00;0.00;0.62;2.90;1.83;;;25.30;33.70;;;;;;2250762;61;20371;-61
2022/06/28 08:26:55;0.00;0.00;0.62;0.00;0.00;0.62;3.00;1.80;;;25.30;33.70;;;;;;2250881;61;20463;-61
2022/06/28 08:29:42;0.00;0.00;0.62;0.00;0.00;0.62;2.43;1.87;;;25.40;33.60;;;;;;2247965;61;20390;-61
2022/06/28 08:32:27;0.00;0.00;0.62;0.00;0.00;0.62;4.50;1.70;;;25.40;33.40;;;;;;2251925;61;20371;-59
2022/06/28 08:35:12;0.00;0.00;0.62;0.00;0.00;0.62;3.00;1.53;;;25.40;33.40;;;;;;2251275;61;21379;-59
2022/06/28 08:37:57;0.00;0.00;0.62;0.00;0.00;0.62;4.70;2.07;;;25.40;33.40;;;;;;2252236;61;20448;-60
2022/06/28 08:40:44;0.00;0.00;0.62;0.00;0.00;0.62;2.73;1.70;;;25.40;33.40;;;;;;2251877;61;20772;-59
2022/06/28 08:43:31;0.00;0.00;0.62;0.00;0.00;0.62;4.17;2.17;;;25.50;33.50;;;;;;2251651;61;20402;-60
2022/06/28 08:46:16;0.00;0.00;0.62;0.00;0.00;0.62;2.83;1.73;;;25.50;33.40;;;;;;2252024;61;20449;-58
2022/06/28 08:49:09;0.00;0.00;0.62;0.00;0.00;0.62;4.97;2.23;;;25.50;33.40;;;;;;2251835;61;21210;-57
2022/06/28 08:51:55;0.00;0.00;0.62;0.00;0.00;0.62;2.60;1.87;;;25.50;33.20;;;;;;2251719;61;20861;-61
2022/06/28 08:54:41;0.00;0.00;0.62;0.00;0.00;0.62;3.20;1.90;;;25.60;33.20;;;;;;2251993;61;20370;-58
2022/06/28 08:57:30;0.00;0.00;0.62;0.00;0.00;0.62;3.17;2.20;;;25.50;33.20;;;;;;2251523;61;20422;-59
2022/06/28 09:00:16;0.00;0.00;0.62;0.00;0.00;0.62;5.40;2.20;;;25.60;33.00;;;;;;2252873;61;20359;-61
2022/06/28 09:03:02;0.00;0.00;0.62;0.00;0.00;0.62;2.70;1.97;;;25.60;33.00;;;;;;2251934;61;20813;-61
2022/06/28 09:05:47;0.00;0.00;0.62;0.00;0.00;0.62;2.90;2.00;;;25.60;33.80;;;;;;2251711;61;21169;-64
2022/06/28 09:08:32;0.00;0.00;0.62;0.00;0.00;0.62;2.83;2.17;;;25.60;33.10;;;;;;2252084;61;20457;-61
2022/06/28 09:11:18;0.00;0.00;0.62;0.00;0.00;0.62;3.30;2.03;;;25.60;33.00;;;;;;2251979;61;20362;-59
2022/06/28 09:14:20;0.00;0.00;0.62;0.00;0.00;0.62;4.00;2.17;;;25.70;32.80;;;;;;2251614;61;20359;-60
2022/06/28 09:17:22;0.00;0.00;0.62;0.00;0.00;0.62;4.23;1.73;;;25.70;32.90;;;;;;2252227;61;20418;-60
2022/06/28 09:20:09;0.00;0.00;0.62;0.00;0.00;0.62;4.67;2.10;;;25.70;33.00;;;;;;2251795;61;20366;-61
2022/06/28 09:22:54;0.00;0.00;0.62;0.00;0.00;0.62;6.83;2.00;;;25.70;33.10;;;;;;2252492;61;20429;-61
2022/06/28 09:25:39;0.00;0.00;0.62;0.00;0.00;0.62;2.23;1.87;;;25.70;32.90;;;;;;2251991;61;20394;-61
2022/06/28 09:28:31;0.00;0.00;0.62;0.00;0.00;0.62;3.80;2.10;;;25.80;32.90;;;;;;2251577;61;20444;-63
2022/06/28 09:31:21;0.00;0.00;0.62;0.00;0.00;0.62;2.73;1.83;;;25.80;33.00;;;;;;2252224;61;20406;-62
2022/06/28 09:34:07;0.00;0.00;0.62;0.00;0.00;0.62;3.10;2.37;;;25.80;32.90;;;;;;2247983;61;20367;-60
2022/06/28 09:36:57;0.00;0.00;0.62;0.00;0.00;0.62;4.77;1.73;;;25.80;33.00;;;;;;2252045;61;20773;-60
2022/06/28 09:39:47;0.00;0.00;0.62;0.00;0.00;0.62;2.47;2.27;;;25.90;33.10;;;;;;2251825;61;20440;-60
2022/06/28 09:42:32;0.00;0.00;0.62;0.00;0.00;0.62;2.30;1.80;;;25.90;33.00;;;;;;2251551;61;20918;-60
2022/06/28 09:45:17;0.00;0.00;0.62;0.00;0.00;0.62;4.00;2.00;;;25.90;32.60;;;;;;2251961;61;21191;-61
2022/06/28 09:48:05;0.00;0.00;0.62;0.00;0.00;0.62;3.07;1.60;;;25.90;32.50;;;;;;2251503;61;20390;-59
2022/06/28 09:50:57;0.00;0.00;0.62;0.00;0.00;0.62;2.40;1.73;;;26.00;32.50;;;;;;2251800;61;20422;-58
2022/06/28 09:53:43;0.00;0.00;0.62;0.00;0.00;0.62;2.80;1.67;;;26.00;32.30;;;;;;2248556;61;20402;-59
2022/06/28 09:56:33;0.00;0.00;0.62;0.00;0.00;0.62;2.53;1.87;;;26.00;32.20;;;;;;2251188;61;20362;-61
2022/06/28 09:59:20;0.00;0.00;0.62;0.00;0.00;0.62;3.53;1.77;;;26.00;32.20;;;;;;2252067;61;20395;-62
2022/06/28 10:02:13;0.00;0.00;0.62;0.00;0.00;0.62;2.70;1.90;;;26.00;32.30;;;;;;2251645;61;21025;-61
2022/06/28 10:05:03;0.00;0.00;0.62;0.00;0.00;0.62;2.40;1.60;;;26.10;32.30;;;;;;2251365;61;20453;-60
2022/06/28 10:07:48;0.00;0.00;0.62;0.00;0.00;0.62;2.13;1.70;;;26.10;31.90;;;;;;2252196;61;20398;-58
2022/06/28 10:10:34;0.00;0.00;0.62;0.00;0.00;0.62;2.13;1.93;;;26.10;31.90;;;;;;2251594;61;20418;-60
2022/06/28 10:16:37;0.00;0.00;0.62;0.00;0.00;0.62;2.80;2.30;;;26.20;31.60;;;;;;2251957;61;20804;-60
2022/06/28 10:19:24;0.00;0.00;0.62;0.00;0.00;0.62;2.33;1.70;;;26.20;31.50;;;;;;2251571;61;20441;-60
2022/06/28 10:22:13;0.00;0.00;0.62;0.00;0.00;0.62;3.20;1.50;;;26.20;31.50;;;;;;2252155;61;20363;-60
2022/06/28 10:25:14;0.00;0.00;0.62;0.00;0.00;0.62;2.43;2.20;;;26.20;31.30;;;;;;2251269;61;20926;-58
2022/06/28 10:27:58;0.00;0.00;0.62;0.00;0.00;0.62;3.17;1.93;;;26.20;30.90;;;;;;2248270;61;20442;-57
2022/06/28 10:30:43;0.00;0.00;0.62;0.00;0.00;0.62;3.20;2.30;;;26.30;30.90;;;;;;2251757;61;20432;-58
2022/06/28 10:33:41;0.00;0.00;0.62;0.00;0.00;0.62;2.60;2.10;;;26.30;30.90;;;;;;2251132;61;20370;-59
2022/06/28 10:36:31;0.00;0.00;0.62;0.00;0.00;0.62;2.33;1.87;;;26.30;30.90;;;;;;2251929;61;20892;-60
2022/06/28 10:39:21;0.00;0.00;0.62;0.00;0.00;0.62;3.80;2.37;;;26.30;30.50;;;;;;2251427;61;20457;-56
2022/06/28 10:42:13;0.00;0.00;0.62;0.00;0.00;0.62;2.93;2.10;;;26.30;30.50;;;;;;2248325;61;20498;-60
2022/06/28 10:44:58;0.00;0.00;0.62;0.00;0.00;0.62;3.03;2.07;;;26.30;31.20;;;;;;2251530;61;20423;-59
2022/06/28 10:48:09;0.00;0.00;0.62;0.00;0.00;0.62;2.73;1.80;;;26.40;30.60;;;;;;2251558;61;20577;-59
2022/06/28 10:50:59;0.00;0.00;0.62;0.00;0.00;0.62;2.80;2.00;;;26.40;30.50;;;;;;2251791;61;20462;-59
2022/06/28 10:54:02;0.00;0.00;0.62;0.00;0.00;0.62;4.33;1.50;;;26.40;30.10;;;;;;2251228;61;20370;-60
2022/06/28 10:56:48;0.00;0.00;0.62;0.00;0.00;0.62;3.80;2.27;;;26.50;30.10;;;;;;2251174;61;20362;-59
2022/06/28 10:59:38;0.00;0.00;0.62;0.00;0.00;0.62;3.33;2.10;;;26.50;30.10;;;;;;2251724;61;20406;-59
2022/06/28 11:02:43;0.00;0.00;0.62;0.00;0.00;0.62;3.33;2.00;;;26.50;30.10;;;;;;2251416;61;20407;-60
2022/06/28 11:05:51;0.00;0.00;0.62;0.00;0.00;0.62;3.20;1.83;;;26.50;30.10;;;;;;2251480;61;20986;-61
2022/06/28 11:08:54;0.00;0.00;0.62;0.00;0.00;0.62;3.13;2.00;;;26.50;30.00;;;;;;2251397;61;20453;-60
2022/06/28 11:12:05;0.00;0.00;0.62;0.00;0.00;0.62;2.07;1.87;;;26.50;30.10;;;;;;2251331;61;20363;-60
2022/06/28 11:14:55;0.00;0.00;0.62;0.00;0.00;0.62;2.50;1.67;;;26.60;30.20;;;;;;2251420;61;20367;-61